Time;durP1;ratioP1;P1;durP2;ratioP2;P2;SDS_P1;SDS_P2;PMS_P1;PMS_P2;Temp;Humidity;BMP_temperature;BMP_pressure;BME280_temperature;BME280_humidity;BME280_pressure;Samples;Min_cycle;Max_cycle;Signal;HPM_P1;HPM_P2
2022/05/30 00:03:56;;;;;;;0.63;0.63;;;;;;;13.66;100.00;96936.31;10335026;28;20107;-62
2022/05/30 00:08:56;;;;;;;0.63;0.63;;;;;;;13.37;100.00;96929.19;10334731;28;20033;-62
2022/05/30 00:13:55;;;;;;;0.40;0.40;;;;;;;12.97;100.00;96878.09;10327007;28;20060;-62
2022/05/30 00:18:54;;;;;;;;;;;;;;;13.28;100.00;96934.63;10334169;28;20093;-62
2022/05/30 00:23:53;;;;;;;1.17;1.17;;;;;;;13.05;100.00;96945.63;10334547;28;19917;-62
2022/05/30 00:28:53;;;;;;;2.47;1.23;;;;;;;12.84;100.00;96933.97;10334580;28;20068;-62
2022/05/30 00:33:51;;;;;;;;;;;;;;;12.92;100.00;96951.09;10334609;28;20069;-62
2022/05/30 00:38:50;;;;;;;0.57;0.57;;;;;;;13.04;100.00;96951.72;10335010;28;19996;-62
2022/05/30 00:43:49;;;;;;;0.30;0.30;;;;;;;13.18;100.00;96940.97;10326660;28;20061;-62
2022/05/30 00:48:55;;;;;;;1.05;1.02;;;;;;;13.39;100.00;96974.31;10334524;28;20691;-62
2022/05/30 00:53:56;;;;;;;0.82;0.70;;;;;;;13.34;100.00;96953.56;10333934;28;20500;-62
2022/05/30 00:58:55;;;;;;;2.72;1.25;;;;;;;13.39;100.00;96945.63;10333809;28;20451;-62
2022/05/30 01:09:16;;;;;;;;;;;;;;;13.73;100.00;96968.28;10334578;28;20073;-62
2022/05/30 01:14:15;;;;;;;1.88;1.23;;;;;;;13.71;100.00;96954.44;10326299;28;19944;-62
2022/05/30 01:19:24;;;;;;;;;;;;;;;13.89;100.00;96961.78;10333757;28;20085;-62
2022/05/30 01:24:33;;;;;;;1.02;1.00;;;;;;;13.95;100.00;96982.44;10331438;28;19955;-62
2022/05/30 01:29:44;;;;;;;1.08;0.88;;;;;;;13.84;100.00;96955.78;10332694;28;20053;-62
2022/05/30 01:34:43;;;;;;;0.93;0.88;;;;;;;14.03;100.00;96982.25;10332111;28;20524;-62
2022/05/30 01:39:42;;;;;;;;;;;;;;;14.03;100.00;96986.59;10332358;28;20488;-62
2022/05/30 01:44:41;;;;;;;0.65;0.65;;;;;;;13.70;100.00;96997.03;10325926;28;19921;-62
2022/05/30 01:49:40;;;;;;;0.73;0.73;;;;;;;13.60;100.00;96992.94;10332196;28;20069;-62
2022/05/30 01:54:39;;;;;;;;;;;;;;;13.71;100.00;96999.59;10336243;28;20546;-62
2022/05/30 01:59:38;;;;;;;0.52;0.52;;;;;;;13.74;100.00;96983.03;10339546;28;20407;-62
2022/05/30 02:04:37;;;;;;;2.20;1.23;;;;;;;13.88;100.00;96995.69;10338760;28;20480;-62
2022/05/30 02:09:36;;;;;;;;;;;;;;;13.98;100.00;96989.34;10339852;28;20069;-62
2022/05/30 02:14:35;;;;;;;1.90;1.02;;;;;;;13.94;100.00;96972.94;10339566;28;19913;-62
2022/05/30 02:19:42;;;;;;;0.88;0.88;;;;;;;14.08;100.00;96992.56;10332670;28;20050;-64
2022/05/30 02:24:41;;;;;;;0.63;0.63;;;;;;;13.99;100.00;96991.06;10339438;28;20491;-61
2022/05/30 02:29:40;;;;;;;2.58;1.27;;;;;;;13.84;100.00;97007.94;10339409;28;20098;-62
2022/05/30 02:39:57;;;;;;;1.20;0.90;;;;;;;13.83;100.00;97011.47;10339161;28;20061;-62
2022/05/30 02:44:56;;;;;;;0.35;0.35;;;;;;;13.60;100.00;96961.66;10338695;28;20079;-62
2022/05/30 02:49:55;;;;;;;0.65;0.65;;;;;;;13.65;100.00;97002.34;10331288;28;20099;-62
2022/05/30 02:54:54;;;;;;;1.05;0.22;;;;;;;13.64;100.00;97021.50;10337760;28;20029;-62
2022/05/30 02:59:53;;;;;;;1.15;0.60;;;;;;;13.57;100.00;97020.81;10338620;28;20400;-62
2022/05/30 03:04:52;;;;;;;1.20;1.10;;;;;;;13.45;100.00;97015.88;10336682;28;20108;-62
2022/05/30 03:09:51;;;;;;;0.50;0.50;;;;;;;13.25;100.00;97031.13;10337822;28;20100;-62
2022/05/30 03:14:51;;;;;;;0.60;0.60;;;;;;;12.94;100.00;97034.41;10337543;28;20104;-62
2022/05/30 03:19:51;;;;;;;0.82;0.82;;;;;;;12.91;100.00;97050.97;10328550;28;20148;-62
2022/05/30 03:24:50;;;;;;;0.90;0.90;;;;;;;12.84;100.00;97052.00;10336889;28;20160;-62
2022/05/30 03:29:49;;;;;;;0.55;0.45;;;;;;;12.87;100.00;97083.16;10337139;28;20131;-62
2022/05/30 03:34:48;;;;;;;1.65;1.55;;;;;;;12.83;100.00;97096.28;10334929;28;20033;-62
2022/05/30 03:39:47;;;;;;;0.52;0.52;;;;;;;12.93;100.00;97114.28;10336327;28;20061;-62
2022/05/30 03:44:46;;;;;;;0.30;0.30;;;;;;;13.10;100.00;97108.72;10336414;28;20041;-62
2022/05/30 03:49:45;;;;;;;0.35;0.35;;;;;;;13.18;100.00;97116.38;10327552;28;20033;-62
2022/05/30 03:54:43;;;;;;;0.60;0.60;;;;;;;13.28;100.00;97127.44;10336076;28;20474;-62
2022/05/30 03:59:42;;;;;;;1.75;0.98;;;;;;;13.31;100.00;97127.41;10335541;28;20014;-62
2022/05/30 04:04:41;;;;;;;2.92;1.73;;;;;;;13.36;100.00;97129.00;10335520;28;20057;-62
2022/05/30 04:09:40;;;;;;;0.82;0.73;;;;;;;13.43;100.00;97137.53;10335225;28;20013;-62
2022/05/30 04:14:39;;;;;;;1.13;0.88;;;;;;;13.50;100.00;97141.72;10335004;28;20472;-62
2022/05/30 04:19:38;;;;;;;0.68;0.68;;;;;;;13.50;100.00;97166.94;10328137;28;20038;-62
2022/05/30 04:24:37;;;;;;;0.63;0.63;;;;;;;13.42;100.00;97151.47;10335130;28;20116;-62
2022/05/30 04:29:36;;;;;;;2.72;1.15;;;;;;;13.57;100.00;97166.78;10334324;28;20021;-62
2022/05/30 04:34:36;;;;;;;0.45;0.45;;;;;;;13.66;100.00;97159.66;10330975;28;20080;-62
2022/05/30 04:39:36;;;;;;;0.50;0.50;;;;;;;13.77;100.00;97174.19;10292738;28;20061;-61
2022/05/30 04:44:37;;;;;;;0.30;0.30;;;;;;;13.79;100.00;97161.06;10280819;28;20473;-62
2022/05/30 04:49:37;;;;;;;0.63;0.63;;;;;;;13.94;100.00;97167.69;10292973;28;20065;-62
2022/05/30 04:54:36;;;;;;;2.05;1.67;;;;;;;14.10;100.00;97165.56;10293307;28;20058;-62
2022/05/30 04:59:38;;;;;;;0.73;0.65;;;;;;;14.45;100.00;97171.66;10293293;28;20033;-61
2022/05/30 05:04:38;;;;;;;0.70;0.70;;;;;;;14.71;100.00;97166.66;10259759;28;20073;-62
2022/05/30 05:09:50;;;;;;;0.50;0.50;;;;;;;15.11;100.00;97183.84;10277311;28;20123;-62
2022/05/30 05:14:48;;;;;;;0.68;0.68;;;;;;;15.27;100.00;97193.84;10306679;28;20062;-62
2022/05/30 05:19:47;;;;;;;;;;;;;;;15.43;100.00;97197.72;10283905;28;20049;-61
2022/05/30 05:24:46;;;;;;;1.45;1.23;;;;;;;15.59;100.00;97205.97;10282317;28;19996;-62
2022/05/30 05:29:45;;;;;;;2.47;1.65;;;;;;;15.66;100.00;97191.81;10289908;28;20558;-62
2022/05/30 05:34:44;;;;;;;;;;;;;;;15.78;100.00;97203.66;10303405;28;20501;-62
2022/05/30 05:39:43;;;;;;;0.57;0.57;;;;;;;15.57;100.00;97187.69;10296933;28;20380;-61
2022/05/30 05:44:42;;;;;;;1.13;1.02;;;;;;;15.64;100.00;97209.31;10294741;28;20132;-62
2022/05/30 05:49:41;;;;;;;;;;;;;;;15.75;100.00;97214.22;10297343;28;20028;-61
2022/05/30 05:54:40;;;;;;;0.70;0.70;;;;;;;15.60;100.00;97203.31;10292709;28;19987;-62
2022/05/30 05:59:38;;;;;;;;;;;;;;;15.81;100.00;97227.13;10289465;28;20105;-62
2022/05/30 06:04:39;;;;;;;0.60;0.40;;;;;;;15.67;100.00;97198.75;10276615;28;20020;-62
2022/05/30 06:09:38;;;;;;;1.38;1.27;;;;;;;15.69;100.00;97225.69;10288470;28;20069;-62
2022/05/30 06:14:37;;;;;;;1.67;1.23;;;;;;;15.63;100.00;97216.28;10298733;28;20560;-62
2022/05/30 06:19:36;;;;;;;;;;;;;;;15.90;100.00;97224.22;10298881;28;20042;-62
2022/05/30 06:24:35;;;;;;;1.63;1.53;;;;;;;15.40;100.00;97107.16;10287099;28;20644;-61
2022/05/30 06:29:34;;;;;;;;;;;;;;;16.44;100.00;97239.13;10284607;28;20108;-62
2022/05/30 06:34:33;;;;;;;3.38;1.38;;;;;;;16.43;100.00;97241.78;10298074;28;19964;-62
2022/05/30 06:39:31;;;;;;;;;;;;;;;16.72;100.00;97248.66;10273305;28;20029;-62
2022/05/30 06:44:32;;;;;;;0.43;0.43;;;;;;;16.81;100.00;97235.28;10285022;28;20019;-62
2022/05/30 06:49:31;;;;;;;1.15;1.15;;;;;;;17.13;100.00;97254.28;10286083;28;20072;-62
2022/05/30 06:54:31;;;;;;;1.00;0.88;;;;;;;17.23;100.00;97245.16;10288203;28;20528;-62
2022/05/30 06:59:30;;;;;;;0.80;0.80;;;;;;;17.29;100.00;97223.97;10283364;28;20468;-63
2022/05/30 07:04:31;;;;;;;0.75;0.75;;;;;;;17.20;100.00;97216.44;10295500;28;20077;-62
2022/05/30 07:09:31;;;;;;;1.35;1.27;;;;;;;17.28;100.00;97237.97;10298321;28;20072;-63
2022/05/30 07:14:29;;;;;;;1.73;1.45;;;;;;;17.23;100.00;97242.53;10286201;28;20061;-63
2022/05/30 07:19:30;;;;;;;1.58;1.48;;;;;;;17.24;100.00;97235.53;10290565;28;20049;-63
2022/05/30 07:24:29;;;;;;;0.80;0.80;;;;;;;17.00;100.00;97245.97;10319517;28;20064;-63
2022/05/30 07:29:28;;;;;;;1.17;1.17;;;;;;;17.30;100.00;97244.03;10299740;28;20611;-63
2022/05/30 07:34:27;;;;;;;0.77;0.77;;;;;;;17.44;100.00;97240.06;10300278;28;20057;-63
2022/05/30 07:39:26;;;;;;;1.00;1.00;;;;;;;17.34;100.00;97227.28;10293397;28;20062;-63
2022/05/30 07:44:25;;;;;;;0.47;0.47;;;;;;;17.52;100.00;97243.28;10279125;28;20056;-63
2022/05/30 07:49:25;;;;;;;0.40;0.40;;;;;;;17.78;100.00;97252.81;10288205;28;20498;-63
2022/05/30 07:54:24;;;;;;;0.77;0.77;;;;;;;17.95;100.00;97265.28;10287956;28;20052;-63
2022/05/30 07:59:23;;;;;;;4.07;2.35;;;;;;;17.98;100.00;97245.00;10288245;28;20030;-63
2022/05/30 08:04:22;;;;;;;6.28;3.10;;;;;;;18.25;100.00;97268.50;10294670;28;20125;-63
2022/05/30 08:09:21;;;;;;;5.18;3.50;;;;;;;18.40;100.00;97251.25;10292119;28;20037;-62
2022/05/30 08:14:20;;;;;;;5.03;2.75;;;;;;;18.37;95.26;97267.16;10292157;28;20057;-62
2022/05/30 08:19:20;;;;;;;6.28;3.17;;;;;;;18.44;100.00;97258.09;10325102;28;20076;-62
2022/05/30 08:24:20;;;;;;;3.90;2.97;;;;;;;18.60;98.54;97280.22;10289849;28;20100;-62
2022/05/30 08:29:19;;;;;;;3.45;2.67;;;;;;;18.77;97.30;97266.41;10294278;28;20065;-63
2022/05/30 08:34:18;;;;;;;5.35;2.92;;;;;;;18.76;88.64;97276.97;10293683;28;20064;-62
2022/05/30 08:44:34;;;;;;;5.95;3.25;;;;;;;19.39;90.01;97274.28;10271934;28;20069;-62
2022/05/30 08:49:46;;;;;;;5.35;3.42;;;;;;;19.16;83.04;97276.16;10288700;28;20026;-62
2022/05/30 08:55:31;;;;;;;5.45;3.03;;;;;;;19.21;85.69;97255.75;10277599;28;20501;-63
2022/05/30 09:00:44;;;;;;;3.95;2.53;;;;;;;19.36;80.96;97275.25;10295460;28;20071;-62
2022/05/30 09:05:50;;;;;;;5.43;2.70;;;;;;;19.47;80.93;97272.16;10312129;28;20065;-62
2022/05/30 09:10:59;;;;;;;5.03;2.67;;;;;;;19.64;82.30;97285.44;10295777;28;20072;-62
2022/05/30 09:16:31;;;;;;;3.40;2.40;;;;;;;19.84;82.77;97287.19;10346928;28;20069;-63
2022/05/30 09:21:32;;;;;;;4.00;2.40;;;;;;;20.02;77.33;97285.47;10288933;28;20085;-63
2022/05/30 09:26:35;;;;;;;5.03;2.60;;;;;;;19.98;80.50;97283.94;10289345;28;20057;-63
2022/05/30 09:31:47;;;;;;;5.13;2.58;;;;;;;20.28;79.74;97273.72;10288673;28;20057;-63
2022/05/30 09:36:49;;;;;;;4.15;2.53;;;;;;;20.53;76.99;97284.91;10274492;28;20624;-63
2022/05/30 09:41:57;;;;;;;2.85;2.45;;;;;;;20.75;83.17;97285.56;10296025;28;20064;-63
2022/05/30 09:47:03;;;;;;;5.45;2.83;;;;;;;20.96;84.35;97272.22;10323555;28;20143;-63
2022/05/30 09:52:20;;;;;;;4.75;2.63;;;;;;;21.41;82.00;97284.03;10313270;28;20070;-63
2022/05/30 09:57:27;;;;;;;3.78;2.70;;;;;;;21.31;74.10;97280.97;10321075;28;20500;-63
2022/05/30 10:02:33;;;;;;;4.75;2.65;;;;;;;21.39;70.17;97276.19;10290582;28;20902;-63
2022/05/30 10:07:35;;;;;;;5.53;2.95;;;;;;;21.68;74.61;97277.25;10275039;28;20524;-63
2022/05/30 10:12:41;;;;;;;7.57;3.70;;;;;;;21.58;64.26;97264.66;10299009;28;20065;-63
2022/05/30 10:17:40;;;;;;;6.28;3.10;;;;;;;21.53;64.46;97264.91;10302238;28;20533;-63
2022/05/30 10:28:39;;;;;;;5.97;3.45;;;;;;;22.11;73.87;97266.22;10283761;28;20487;-63
2022/05/30 10:34:16;;;;;;;6.57;3.72;;;;;;;22.42;74.23;97243.34;10286086;28;20061;-63
2022/05/30 10:39:40;;;;;;;4.63;2.97;;;;;;;22.41;65.21;97249.53;10279868;28;20061;-63
2022/05/30 10:44:45;;;;;;;5.88;2.95;;;;;;;22.43;64.19;97227.38;10297197;28;20481;-63
2022/05/30 10:49:49;;;;;;;5.35;3.67;;;;;;;22.78;66.52;97258.88;10310877;28;20076;-63
2022/05/30 10:55:01;;;;;;;4.05;2.90;;;;;;;22.95;65.73;97263.19;10336139;28;20053;-63
2022/05/30 11:00:05;;;;;;;5.20;2.75;;;;;;;22.85;64.49;97264.69;10313160;28;20061;-63
2022/05/30 11:05:18;;;;;;;4.85;2.72;;;;;;;22.87;64.85;97265.44;10294533;28;20076;-63
2022/05/30 11:10:25;;;;;;;5.65;3.22;;;;;;;22.80;62.64;97249.06;10311331;28;20068;-63
2022/05/30 11:16:01;;;;;;;6.32;3.25;;;;;;;22.79;62.34;97253.53;10271324;28;20066;-63
2022/05/30 11:21:20;;;;;;;5.50;3.33;;;;;;;22.98;60.53;97253.28;10270241;28;20796;-63
2022/05/30 11:26:42;;;;;;;5.90;3.13;;;;;;;23.06;61.69;97257.28;10329896;28;20719;-63
2022/05/30 11:32:01;;;;;;;4.70;2.90;;;;;;;23.13;56.92;97255.97;10260013;28;20073;-65
2022/05/30 11:37:17;;;;;;;4.22;3.33;;;;;;;23.20;56.72;97259.94;10258018;28;20470;-65
2022/05/30 11:42:37;;;;;;;6.57;3.60;;;;;;;23.85;68.20;97265.69;10272438;28;20068;-65
2022/05/30 11:47:49;;;;;;;5.13;3.55;;;;;;;24.35;59.10;97270.53;10297302;28;20072;-65
2022/05/30 11:53:03;;;;;;;5.15;3.35;;;;;;;24.52;60.64;97261.50;10317525;28;20520;-65
2022/05/30 11:58:12;;;;;;;7.90;3.50;;;;;;;24.29;52.87;97266.50;10308212;28;20670;-65
2022/05/30 12:03:32;;;;;;;6.32;4.35;;;;;;;24.18;52.58;97261.88;10296445;28;20061;-65
2022/05/30 12:08:37;;;;;;;8.85;3.72;;;;;;;24.48;51.83;97261.69;10294598;28;20065;-65
2022/05/30 12:13:48;;;;;;;4.68;3.20;;;;;;;24.79;52.45;97259.69;10290931;28;20066;-65
2022/05/30 12:24:39;;;;;;;9.75;3.97;;;;;;;25.12;52.37;97261.06;10306685;28;20513;-64
2022/05/30 12:29:39;;;;;;;6.60;3.15;;;;;;;25.09;50.56;97255.97;10333527;28;20136;-65
2022/05/30 12:39:59;;;;;;;3.47;3.05;;;;;;;24.95;51.14;97230.34;10294094;28;20073;-64
2022/05/30 12:45:16;;;;;;;4.65;3.03;;;;;;;24.94;53.01;97249.00;10289239;28;20458;-65
2022/05/30 12:50:34;;;;;;;6.30;2.90;;;;;;;25.20;49.61;97247.25;10269800;28;20096;-65
2022/05/30 12:55:37;;;;;;;;;;;;;;;25.28;50.91;97252.91;10294241;28;20068;-64
2022/05/30 13:00:36;;;;;;;6.07;3.47;;;;;;;25.42;51.60;97246.63;10318588;28;19948;-64
2022/05/30 13:05:41;;;;;;;9.23;3.72;;;;;;;25.53;49.95;97252.06;10291088;28;20041;-64
2022/05/30 13:10:41;;;;;;;5.68;3.15;;;;;;;25.66;50.53;97249.41;10280886;28;20127;-64
2022/05/30 13:15:54;;;;;;;4.88;2.83;;;;;;;25.37;49.92;97167.25;10292178;28;20100;-64
2022/05/30 13:21:04;;;;;;;5.82;3.38;;;;;;;25.65;48.55;97256.53;10286712;28;20092;-64
2022/05/30 13:26:10;;;;;;;5.78;3.50;;;;;;;25.41;49.64;97263.50;10315529;28;20078;-64
2022/05/30 13:31:12;;;;;;;6.38;2.95;;;;;;;25.52;48.87;97258.31;10271695;28;20061;-64
2022/05/30 13:36:20;;;;;;;4.70;2.80;;;;;;;25.39;48.60;97246.84;10292001;28;20069;-64
2022/05/30 13:41:22;;;;;;;7.70;3.33;;;;;;;25.60;48.83;97256.00;10292197;28;20062;-64
2022/05/30 13:46:27;;;;;;;5.25;2.90;;;;;;;25.53;47.95;97257.38;10262360;28;20527;-64
2022/05/30 13:51:32;;;;;;;9.25;3.72;;;;;;;25.46;48.96;97261.41;10256408;28;20065;-64
2022/05/30 13:56:41;;;;;;;4.43;2.70;;;;;;;25.58;48.36;97263.25;10291555;28;20493;-64
2022/05/30 14:01:40;;;;;;;4.93;2.83;;;;;;;26.06;48.66;97252.72;10291633;28;20060;-64
2022/05/30 14:06:43;;;;;;;5.53;3.00;;;;;;;26.26;46.23;97240.69;10300400;28;20045;-64
2022/05/30 14:11:49;;;;;;;7.07;2.80;;;;;;;26.09;46.45;97260.50;10301249;28;20061;-64
2022/05/30 14:16:57;;;;;;;7.10;3.60;;;;;;;25.91;47.67;97243.22;10299338;28;20700;-64
2022/05/30 14:21:58;;;;;;;4.53;2.90;;;;;;;25.92;46.74;97271.47;10271470;28;20084;-64
2022/05/30 14:27:00;;;;;;;7.78;3.25;;;;;;;25.81;46.59;97263.41;10288612;28;20076;-64
2022/05/30 14:32:07;;;;;;;5.13;2.90;;;;;;;25.89;47.43;97263.72;10306847;28;20478;-64
2022/05/30 14:37:24;;;;;;;7.97;3.63;;;;;;;25.74;46.98;97263.88;10298350;28;20065;-64
2022/05/30 14:42:26;;;;;;;4.70;2.85;;;;;;;25.65;46.76;97259.19;10322886;28;20074;-64
2022/05/30 14:47:30;;;;;;;4.15;2.60;;;;;;;25.46;46.79;97258.75;10290486;28;20073;-64
2022/05/30 14:52:38;;;;;;;4.55;3.22;;;;;;;25.14;47.41;97221.97;10300243;28;20072;-64
2022/05/30 14:57:45;;;;;;;4.43;2.80;;;;;;;25.35;47.10;97251.50;10331937;28;20042;-64
2022/05/30 15:08:02;;;;;;;4.28;3.20;;;;;;;25.37;48.11;97248.75;10300302;28;20069;-64
2022/05/30 15:13:01;;;;;;;6.22;3.47;;;;;;;25.41;48.46;97245.78;10328546;28;20038;-64
2022/05/30 15:18:00;;;;;;;3.38;2.60;;;;;;;25.43;47.69;97243.00;10295198;28;20457;-64
2022/05/30 15:23:01;;;;;;;5.68;2.88;;;;;;;25.15;48.92;97234.28;10293254;28;20061;-64
2022/05/30 15:28:00;;;;;;;8.13;4.72;;;;;;;25.20;48.66;97236.63;10336511;28;20065;-64
2022/05/30 15:32:59;;;;;;;5.28;2.92;;;;;;;25.00;49.44;97225.56;10277255;28;20073;-64
2022/05/30 15:37:58;;;;;;;5.72;3.33;;;;;;;24.97;48.95;97246.19;10295272;28;20034;-64
2022/05/30 15:42:57;;;;;;;9.38;2.88;;;;;;;25.05;50.38;97246.50;10293895;28;20025;-64
2022/05/30 15:47:56;;;;;;;4.20;3.08;;;;;;;25.09;50.50;97250.66;10253697;28;20136;-64
2022/05/30 15:58:18;;;;;;;5.97;3.05;;;;;;;24.88;50.29;97266.22;10255938;28;20065;-64
2022/05/30 16:03:17;;;;;;;5.57;3.00;;;;;;;24.77;52.04;97261.56;10269418;28;20068;-64
2022/05/30 16:08:25;;;;;;;7.20;3.15;;;;;;;24.67;51.67;97257.84;10294707;28;20076;-64
2022/05/30 16:13:25;;;;;;;4.93;3.15;;;;;;;24.46;51.63;97266.25;10286952;28;20478;-64
2022/05/30 16:18:24;;;;;;;7.55;3.38;;;;;;;24.51;52.79;97288.97;10266531;28;20132;-64
2022/05/30 16:23:26;;;;;;;5.30;3.20;;;;;;;24.36;53.46;97282.88;10251431;28;20030;-64
2022/05/30 16:28:27;;;;;;;4.60;2.90;;;;;;;24.27;53.92;97263.09;10249840;28;20073;-64
2022/05/30 16:33:26;;;;;;;4.28;2.88;;;;;;;23.92;55.61;97263.50;10311448;28;20068;-64
2022/05/30 16:38:25;;;;;;;5.72;3.00;;;;;;;24.06;53.57;97287.34;10291413;28;20026;-64
2022/05/30 16:43:24;;;;;;;6.07;3.42;;;;;;;23.96;52.72;97266.78;10314759;28;20109;-64
2022/05/30 16:48:38;;;;;;;7.28;3.15;;;;;;;24.09;53.44;97304.00;10316091;28;20038;-64
2022/05/30 16:53:37;;;;;;;4.30;2.90;;;;;;;24.01;55.38;97310.63;10346615;28;20108;-64
2022/05/30 16:58:37;;;;;;;7.60;3.17;;;;;;;23.82;56.19;97304.78;10321089;28;20061;-64
2022/05/30 17:03:36;;;;;;;5.70;3.08;;;;;;;23.82;56.31;97307.44;10290496;28;20112;-64
2022/05/30 17:08:38;;;;;;;8.70;3.20;;;;;;;23.56;56.88;97309.00;10290562;28;20515;-64
2022/05/30 17:13:38;;;;;;;7.75;3.38;;;;;;;23.42;57.24;97301.88;10290848;28;20061;-64
2022/05/30 17:18:38;;;;;;;5.57;3.90;;;;;;;23.34;57.22;97309.41;10311225;28;20081;-64
2022/05/30 17:23:40;;;;;;;6.05;3.50;;;;;;;23.22;57.94;97317.16;10331863;28;20068;-64
2022/05/30 17:33:59;;;;;;;7.85;4.35;;;;;;;22.91;60.50;97322.53;10318554;28;20084;-63
2022/05/30 17:38:58;;;;;;;10.73;3.90;;;;;;;22.83;60.86;97325.59;10298207;28;20477;-64
2022/05/30 17:43:58;;;;;;;7.40;4.30;;;;;;;22.71;62.03;97332.41;10283751;28;20100;-64
2022/05/30 17:49:15;;;;;;;10.63;5.00;;;;;;;22.50;63.74;97352.16;10297521;28;20068;-64
2022/05/30 17:54:15;;;;;;;8.70;4.95;;;;;;;22.27;64.58;97334.91;10329323;28;20065;-64
2022/05/30 17:59:15;;;;;;;10.18;5.53;;;;;;;22.13;66.05;97354.16;10297219;28;20077;-64
2022/05/30 18:04:14;;;;;;;8.95;4.55;;;;;;;21.95;67.15;97359.47;10297539;28;20069;-64
2022/05/30 18:09:35;;;;;;;7.85;4.55;;;;;;;21.68;67.51;97367.06;10290880;28;20069;-64
2022/05/30 18:14:38;;;;;;;8.10;4.20;;;;;;;21.40;68.23;97357.06;10256629;28;20066;-64
2022/05/30 18:19:41;;;;;;;8.13;4.50;;;;;;;21.29;69.12;97385.81;10324646;28;20081;-64
2022/05/30 18:25:21;;;;;;;8.57;4.50;;;;;;;21.09;69.67;97392.03;10336919;28;20057;-64
2022/05/30 18:30:24;;;;;;;8.82;5.50;;;;;;;20.90;71.07;97408.75;10310918;28;20053;-64
2022/05/30 18:35:28;;;;;;;11.85;5.32;;;;;;;20.77;72.27;97415.53;10256113;28;20061;-64
2022/05/30 18:40:49;;;;;;;11.15;5.25;;;;;;;20.68;73.33;97414.19;10255548;28;20068;-64
2022/05/30 18:45:54;;;;;;;10.07;4.82;;;;;;;20.55;73.77;97422.75;10255289;28;20066;-64
2022/05/30 18:50:53;;;;;;;9.23;5.03;;;;;;;20.38;74.14;97421.72;10271984;28;20068;-64
2022/05/30 18:56:02;;;;;;;9.35;4.97;;;;;;;20.34;74.22;97443.84;10335045;28;20030;-64
2022/05/30 19:01:03;;;;;;;8.27;4.88;;;;;;;20.28;74.44;97454.66;10306816;28;20073;-64
2022/05/30 19:06:04;;;;;;;7.10;4.75;;;;;;;20.23;74.81;97456.66;10254483;28;20070;-64
2022/05/30 19:11:08;;;;;;;14.80;6.57;;;;;;;20.05;77.32;97463.63;10255789;28;20061;-64
2022/05/30 19:21:25;;;;;;;11.68;5.63;;;;;;;19.79;80.07;97457.69;10262654;28;20081;-64
2022/05/30 19:26:24;;;;;;;8.48;5.57;;;;;;;19.66;80.71;97461.75;10297545;28;20065;-64
2022/05/30 19:31:24;;;;;;;11.18;5.57;;;;;;;19.62;81.29;97461.03;10297273;28;20528;-64
2022/05/30 19:36:25;;;;;;;9.68;6.00;;;;;;;19.67;81.46;97476.63;10295427;28;20368;-64
2022/05/30 19:41:24;;;;;;;10.88;6.03;;;;;;;19.68;81.49;97474.88;10258394;28;20509;-64
2022/05/30 19:46:30;;;;;;;10.40;5.55;;;;;;;19.65;81.92;97471.44;10255752;28;20470;-64
2022/05/30 19:51:30;;;;;;;15.82;5.88;;;;;;;19.54;82.30;97473.63;10253711;28;20026;-64
2022/05/30 19:56:34;;;;;;;10.18;6.70;;;;;;;19.42;81.79;97453.94;10295331;28;20030;-64
2022/05/30 20:01:34;;;;;;;12.43;5.47;;;;;;;19.39;81.86;97453.19;10296409;28;20058;-64
2022/05/30 20:06:33;;;;;;;10.60;6.32;;;;;;;19.51;81.90;97491.31;10282439;28;20057;-64
2022/05/30 20:11:35;;;;;;;10.65;5.45;;;;;;;19.44;81.58;97483.69;10261288;28;20164;-64
2022/05/30 20:16:37;;;;;;;9.73;6.00;;;;;;;19.33;81.62;97480.63;10291796;28;20072;-64
2022/05/30 20:21:37;;;;;;;9.13;5.60;;;;;;;19.19;82.04;97477.69;10271758;28;20089;-64
2022/05/30 20:26:37;;;;;;;11.05;5.97;;;;;;;19.04;82.17;97479.16;10284838;28;20061;-64
2022/05/30 20:31:38;;;;;;;9.27;4.85;;;;;;;18.85;82.21;97479.00;10290005;28;20065;-64
2022/05/30 20:36:37;;;;;;;10.45;5.43;;;;;;;18.80;82.23;97488.84;10285504;28;20062;-64
2022/05/30 20:46:54;;;;;;;9.70;5.70;;;;;;;18.46;82.33;97469.09;10251159;28;20066;-64
2022/05/30 20:51:56;;;;;;;6.65;5.00;;;;;;;18.48;82.37;97490.91;10308053;28;20582;-64
2022/05/30 20:56:55;;;;;;;10.40;5.38;;;;;;;18.20;86.17;97501.56;10298560;28;20069;-64
2022/05/30 21:01:54;;;;;;;12.27;6.00;;;;;;;17.87;88.40;97493.06;10290103;28;20065;-64
2022/05/30 21:06:53;;;;;;;13.88;6.13;;;;;;;17.71;88.69;97477.00;10288438;28;20066;-64
2022/05/30 21:11:52;;;;;;;11.07;5.88;;;;;;;17.67;89.59;97491.97;10288747;28;20046;-64
2022/05/30 21:17:01;;;;;;;11.05;6.50;;;;;;;17.58;89.39;97497.53;10289897;28;20018;-64
2022/05/30 21:22:06;;;;;;;11.18;6.35;;;;;;;17.48;90.02;97506.63;10290392;28;20084;-64
2022/05/30 21:27:06;;;;;;;11.77;7.10;;;;;;;17.38;90.55;97502.56;10288926;28;20601;-64
2022/05/30 21:32:20;;;;;;;13.38;6.45;;;;;;;17.15;90.75;97485.81;10289592;28;20073;-64
2022/05/30 21:37:20;;;;;;;12.07;6.90;;;;;;;17.13;90.72;97505.97;10280207;28;20074;-64
2022/05/30 21:42:19;;;;;;;10.55;6.65;;;;;;;16.98;91.16;97498.56;10287707;28;20077;-64
2022/05/30 21:47:19;;;;;;;11.82;7.13;;;;;;;16.95;91.38;97506.53;10280371;28;20061;-64
2022/05/30 21:52:18;;;;;;;11.10;6.55;;;;;;;16.92;91.94;97513.59;10289132;28;20091;-65
2022/05/30 22:02:35;;;;;;;13.95;8.48;;;;;;;16.70;93.21;97530.84;10265207;28;20077;-64
2022/05/30 22:07:34;;;;;;;14.80;7.82;;;;;;;16.80;93.25;97558.47;10283284;28;20142;-64
2022/05/30 22:12:33;;;;;;;;;;;;;;;16.85;93.61;97556.59;10296663;28;20022;-64
2022/05/30 22:17:32;;;;;;;14.85;8.65;;;;;;;16.70;93.54;97533.47;10300090;28;19960;-65
2022/05/30 22:22:30;;;;;;;;;;;;;;;16.85;93.90;97558.38;10289502;28;20068;-65
2022/05/30 22:27:29;;;;;;;13.38;8.38;;;;;;;16.73;94.02;97552.56;10301028;28;20012;-65
2022/05/30 22:32:28;;;;;;;;;;;;;;;16.86;93.99;97568.81;10294134;28;20036;-64
2022/05/30 22:37:27;;;;;;;14.27;8.27;;;;;;;16.86;93.68;97566.22;10296614;28;20383;-65
2022/05/30 22:42:26;;;;;;;;;;;;;;;16.88;93.35;97564.38;10300623;28;20034;-65
2022/05/30 22:47:25;;;;;;;16.20;8.70;;;;;;;16.89;92.99;97566.09;10292300;28;20372;-65
2022/05/30 22:52:25;;;;;;;10.73;7.32;;;;;;;16.92;92.69;97575.63;10296558;28;20053;-64
2022/05/30 22:57:27;;;;;;;14.30;7.82;;;;;;;16.79;92.21;97541.03;10292980;28;20053;-65
2022/05/30 23:02:27;;;;;;;10.07;6.88;;;;;;;16.97;92.38;97572.88;10297644;28;20506;-64
2022/05/30 23:07:26;;;;;;;11.30;6.47;;;;;;;16.83;93.50;97587.25;10294450;28;20189;-65
2022/05/30 23:12:25;;;;;;;9.93;6.78;;;;;;;16.46;95.46;97601.31;10289426;28;20057;-65
2022/05/30 23:17:25;;;;;;;10.65;7.07;;;;;;;16.34;95.54;97625.22;10294454;28;20049;-65
2022/05/30 23:22:25;;;;;;;15.70;6.97;;;;;;;16.00;96.03;97604.31;10292889;28;20049;-65
2022/05/30 23:27:26;;;;;;;11.95;7.22;;;;;;;16.14;96.06;97631.00;10292034;28;20069;-65
2022/05/30 23:32:25;;;;;;;13.40;6.65;;;;;;;16.13;96.04;97633.66;10290678;28;20065;-65
2022/05/30 23:37:24;;;;;;;;;;;;;;;16.32;96.07;97652.34;10310611;28;20034;-65
2022/05/30 23:47:43;;;;;;;11.00;7.00;;;;;;;16.51;96.32;97674.53;10281347;28;20065;-65
2022/05/30 23:52:44;;;;;;;12.60;7.63;;;;;;;16.57;96.30;97663.91;10287746;28;20065;-63
2022/05/30 23:57:45;;;;;;;11.93;7.88;;;;;;;16.56;96.76;97669.19;10288908;28;20064;-64
